sensor_id;sensor_type;location;lat;lon;timestamp;temperature;humidity
47805;DHT22;33568;45.286;9.900;2023-02-10T00:01:07;2.00;57.30
47805;DHT22;33568;45.286;9.900;2023-02-10T00:03:34;1.90;57.40
47805;DHT22;33568;45.286;9.900;2023-02-10T00:06:01;1.90;57.60
47805;DHT22;33568;45.286;9.900;2023-02-10T00:08:28;1.90;57.60
47805;DHT22;33568;45.286;9.900;2023-02-10T00:10:59;1.90;57.70
47805;DHT22;33568;45.286;9.900;2023-02-10T00:13:26;1.90;57.90
47805;DHT22;33568;45.286;9.900;2023-02-10T00:15:53;1.80;58.00
47805;DHT22;33568;45.286;9.900;2023-02-10T00:18:20;1.80;58.10
47805;DHT22;33568;45.286;9.900;2023-02-10T00:20:46;1.80;58.30
47805;DHT22;33568;45.286;9.900;2023-02-10T00:23:13;1.80;58.60
47805;DHT22;33568;45.286;9.900;2023-02-10T00:25:39;1.80;58.60
47805;DHT22;33568;45.286;9.900;2023-02-10T00:28:06;1.80;58.50
47805;DHT22;33568;45.286;9.900;2023-02-10T00:30:33;1.70;58.60
47805;DHT22;33568;45.286;9.900;2023-02-10T00:33:00;1.70;58.60
47805;DHT22;33568;45.286;9.900;2023-02-10T00:35:26;1.70;58.50
47805;DHT22;33568;45.286;9.900;2023-02-10T00:37:53;1.70;58.70
47805;DHT22;33568;45.286;9.900;2023-02-10T00:40:19;1.60;58.90
47805;DHT22;33568;45.286;9.900;2023-02-10T00:42:46;1.60;59.00
47805;DHT22;33568;45.286;9.900;2023-02-10T00:45:12;1.60;59.10
47805;DHT22;33568;45.286;9.900;2023-02-10T00:47:39;1.60;59.20
47805;DHT22;33568;45.286;9.900;2023-02-10T00:50:06;1.50;60.50
47805;DHT22;33568;45.286;9.900;2023-02-10T00:52:32;1.50;59.20
47805;DHT22;33568;45.286;9.900;2023-02-10T00:54:59;1.50;59.30
47805;DHT22;33568;45.286;9.900;2023-02-10T00:57:27;1.40;59.30
47805;DHT22;33568;45.286;9.900;2023-02-10T00:59:53;1.40;59.40
47805;DHT22;33568;45.286;9.900;2023-02-10T01:02:20;1.40;59.60
47805;DHT22;33568;45.286;9.900;2023-02-10T01:04:47;1.40;59.50
47805;DHT22;33568;45.286;9.900;2023-02-10T01:07:13;1.40;59.60
47805;DHT22;33568;45.286;9.900;2023-02-10T01:09:40;1.40;59.50
47805;DHT22;33568;45.286;9.900;2023-02-10T01:12:06;1.40;60.20
47805;DHT22;33568;45.286;9.900;2023-02-10T01:14:33;1.40;59.80
47805;DHT22;33568;45.286;9.900;2023-02-10T01:17:00;1.40;59.80
47805;DHT22;33568;45.286;9.900;2023-02-10T01:19:26;1.40;59.80
47805;DHT22;33568;45.286;9.900;2023-02-10T01:21:53;1.30;59.80
47805;DHT22;33568;45.286;9.900;2023-02-10T01:24:19;1.30;60.00
47805;DHT22;33568;45.286;9.900;2023-02-10T01:26:45;1.30;60.00
47805;DHT22;33568;45.286;9.900;2023-02-10T01:29:12;1.30;60.10
47805;DHT22;33568;45.286;9.900;2023-02-10T01:31:38;1.20;61.20
47805;DHT22;33568;45.286;9.900;2023-02-10T01:34:04;1.20;60.10
47805;DHT22;33568;45.286;9.900;2023-02-10T01:36:31;1.20;61.70
47805;DHT22;33568;45.286;9.900;2023-02-10T01:38:57;1.20;60.30
47805;DHT22;33568;45.286;9.900;2023-02-10T01:41:24;1.20;60.20
47805;DHT22;33568;45.286;9.900;2023-02-10T01:46:20;1.20;61.60
47805;DHT22;33568;45.286;9.900;2023-02-10T01:48:46;1.20;60.20
47805;DHT22;33568;45.286;9.900;2023-02-10T01:51:12;1.20;60.10
47805;DHT22;33568;45.286;9.900;2023-02-10T01:53:39;1.20;61.50
47805;DHT22;33568;45.286;9.900;2023-02-10T01:56:06;1.20;60.40
47805;DHT22;33568;45.286;9.900;2023-02-10T01:58:34;1.10;60.20
47805;DHT22;33568;45.286;9.900;2023-02-10T02:01:00;1.10;60.30
47805;DHT22;33568;45.286;9.900;2023-02-10T02:03:27;1.10;60.40
47805;DHT22;33568;45.286;9.900;2023-02-10T02:05:53;1.10;60.50
47805;DHT22;33568;45.286;9.900;2023-02-10T02:08:24;1.10;60.70
47805;DHT22;33568;45.286;9.900;2023-02-10T02:10:59;1.00;60.70
47805;DHT22;33568;45.286;9.900;2023-02-10T02:13:45;1.00;60.80
47805;DHT22;33568;45.286;9.900;2023-02-10T02:16:20;1.00;60.80
47805;DHT22;33568;45.286;9.900;2023-02-10T02:22:21;1.00;61.30
47805;DHT22;33568;45.286;9.900;2023-02-10T02:32:43;0.90;61.50
47805;DHT22;33568;45.286;9.900;2023-02-10T02:35:15;0.90;61.50
47805;DHT22;33568;45.286;9.900;2023-02-10T02:37:44;0.90;61.40
47805;DHT22;33568;45.286;9.900;2023-02-10T02:40:14;0.80;61.60
47805;DHT22;33568;45.286;9.900;2023-02-10T02:42:40;0.80;61.60
47805;DHT22;33568;45.286;9.900;2023-02-10T02:45:16;0.80;61.80
47805;DHT22;33568;45.286;9.900;2023-02-10T02:50:45;0.90;62.00
47805;DHT22;33568;45.286;9.900;2023-02-10T03:01:35;0.80;62.20
47805;DHT22;33568;45.286;9.900;2023-02-10T03:04:03;0.80;62.20
47805;DHT22;33568;45.286;9.900;2023-02-10T03:06:33;0.80;62.20
47805;DHT22;33568;45.286;9.900;2023-02-10T03:08:59;0.70;62.30
47805;DHT22;33568;45.286;9.900;2023-02-10T03:11:26;0.70;62.40
47805;DHT22;33568;45.286;9.900;2023-02-10T03:13:52;0.70;62.40
47805;DHT22;33568;45.286;9.900;2023-02-10T03:16:18;0.60;63.70
47805;DHT22;33568;45.286;9.900;2023-02-10T03:18:45;0.60;62.70
47805;DHT22;33568;45.286;9.900;2023-02-10T03:21:11;0.60;64.20
47805;DHT22;33568;45.286;9.900;2023-02-10T03:23:38;0.60;62.80
47805;DHT22;33568;45.286;9.900;2023-02-10T03:26:04;0.50;64.50
47805;DHT22;33568;45.286;9.900;2023-02-10T03:28:31;0.50;62.90
47805;DHT22;33568;45.286;9.900;2023-02-10T03:31:00;0.50;62.90
47805;DHT22;33568;45.286;9.900;2023-02-10T03:33:29;0.50;63.00
47805;DHT22;33568;45.286;9.900;2023-02-10T03:35:56;0.50;63.00
47805;DHT22;33568;45.286;9.900;2023-02-10T03:38:24;0.50;64.60
47805;DHT22;33568;45.286;9.900;2023-02-10T03:40:52;0.50;63.10
47805;DHT22;33568;45.286;9.900;2023-02-10T03:43:19;0.50;63.00
47805;DHT22;33568;45.286;9.900;2023-02-10T03:45:46;0.50;63.10
47805;DHT22;33568;45.286;9.900;2023-02-10T03:48:13;0.60;63.20
47805;DHT22;33568;45.286;9.900;2023-02-10T03:50:42;0.50;63.10
47805;DHT22;33568;45.286;9.900;2023-02-10T03:53:08;0.50;63.40
47805;DHT22;33568;45.286;9.900;2023-02-10T03:55:35;0.50;63.30
47805;DHT22;33568;45.286;9.900;2023-02-10T03:58:02;0.40;63.40
47805;DHT22;33568;45.286;9.900;2023-02-10T04:00:29;0.40;63.60
47805;DHT22;33568;45.286;9.900;2023-02-10T04:02:56;0.40;63.60
47805;DHT22;33568;45.286;9.900;2023-02-10T04:05:23;0.40;63.50
47805;DHT22;33568;45.286;9.900;2023-02-10T04:07:49;0.40;63.60
47805;DHT22;33568;45.286;9.900;2023-02-10T04:10:15;0.40;63.80
47805;DHT22;33568;45.286;9.900;2023-02-10T04:12:42;0.40;63.80
47805;DHT22;33568;45.286;9.900;2023-02-10T04:15:08;0.40;65.10
47805;DHT22;33568;45.286;9.900;2023-02-10T04:17:35;0.40;63.80
47805;DHT22;33568;45.286;9.900;2023-02-10T04:20:01;0.40;63.60
47805;DHT22;33568;45.286;9.900;2023-02-10T04:22:28;0.40;63.70
47805;DHT22;33568;45.286;9.900;2023-02-10T04:24:54;0.40;63.80
47805;DHT22;33568;45.286;9.900;2023-02-10T04:27:21;0.30;64.00
47805;DHT22;33568;45.286;9.900;2023-02-10T04:29:47;0.30;65.40
47805;DHT22;33568;45.286;9.900;2023-02-10T04:32:13;0.30;64.20
47805;DHT22;33568;45.286;9.900;2023-02-10T04:34:40;0.30;64.20
47805;DHT22;33568;45.286;9.900;2023-02-10T04:37:06;0.30;64.10
47805;DHT22;33568;45.286;9.900;2023-02-10T04:39:32;0.30;65.20
47805;DHT22;33568;45.286;9.900;2023-02-10T04:41:59;0.30;64.20
47805;DHT22;33568;45.286;9.900;2023-02-10T04:44:25;0.30;64.20
47805;DHT22;33568;45.286;9.900;2023-02-10T04:46:51;0.30;64.20
47805;DHT22;33568;45.286;9.900;2023-02-10T04:49:18;0.20;65.90
47805;DHT22;33568;45.286;9.900;2023-02-10T04:51:44;0.20;64.40
47805;DHT22;33568;45.286;9.900;2023-02-10T04:54:11;0.20;64.50
47805;DHT22;33568;45.286;9.900;2023-02-10T04:56:37;0.10;66.00
47805;DHT22;33568;45.286;9.900;2023-02-10T04:59:04;0.10;64.80
47805;DHT22;33568;45.286;9.900;2023-02-10T05:01:30;0.00;66.00
47805;DHT22;33568;45.286;9.900;2023-02-10T05:03:57;0.00;65.00
47805;DHT22;33568;45.286;9.900;2023-02-10T05:06:23;0.00;64.80
47805;DHT22;33568;45.286;9.900;2023-02-10T05:08:49;0.00;66.40
47805;DHT22;33568;45.286;9.900;2023-02-10T05:11:16;0.00;65.00
47805;DHT22;33568;45.286;9.900;2023-02-10T05:13:43;0.00;66.40
47805;DHT22;33568;45.286;9.900;2023-02-10T05:16:11;0.00;64.80
47805;DHT22;33568;45.286;9.900;2023-02-10T05:18:38;0.00;64.70
47805;DHT22;33568;45.286;9.900;2023-02-10T05:21:06;0.00;64.80
47805;DHT22;33568;45.286;9.900;2023-02-10T05:23:34;0.00;64.80
47805;DHT22;33568;45.286;9.900;2023-02-10T05:26:00;0.00;65.00
47805;DHT22;33568;45.286;9.900;2023-02-10T05:28:27;0.00;65.20
47805;DHT22;33568;45.286;9.900;2023-02-10T05:30:53;0.00;65.40
47805;DHT22;33568;45.286;9.900;2023-02-10T05:33:20;-0.10;66.80
47805;DHT22;33568;45.286;9.900;2023-02-10T05:35:46;-0.10;65.50
47805;DHT22;33568;45.286;9.900;2023-02-10T05:38:12;-0.10;66.60
47805;DHT22;33568;45.286;9.900;2023-02-10T05:40:39;-0.20;65.60
47805;DHT22;33568;45.286;9.900;2023-02-10T05:43:05;-0.20;67.30
47805;DHT22;33568;45.286;9.900;2023-02-10T05:45:34;-0.20;65.80
47805;DHT22;33568;45.286;9.900;2023-02-10T05:48:00;-0.20;65.70
47805;DHT22;33568;45.286;9.900;2023-02-10T05:50:26;-0.30;67.20
47805;DHT22;33568;45.286;9.900;2023-02-10T05:52:53;-0.30;66.00
47805;DHT22;33568;45.286;9.900;2023-02-10T05:55:20;-0.30;66.00
47805;DHT22;33568;45.286;9.900;2023-02-10T05:57:47;-0.30;67.50
47805;DHT22;33568;45.286;9.900;2023-02-10T06:00:13;-0.40;66.20
47805;DHT22;33568;45.286;9.900;2023-02-10T06:02:41;-0.40;68.10
47805;DHT22;33568;45.286;9.900;2023-02-10T06:05:07;-0.40;66.30
47805;DHT22;33568;45.286;9.900;2023-02-10T06:07:34;-0.40;66.20
47805;DHT22;33568;45.286;9.900;2023-02-10T06:10:00;-0.40;66.40
47805;DHT22;33568;45.286;9.900;2023-02-10T06:12:26;-0.40;68.00
47805;DHT22;33568;45.286;9.900;2023-02-10T06:14:53;-0.40;66.60
47805;DHT22;33568;45.286;9.900;2023-02-10T06:17:19;-0.30;66.50
47805;DHT22;33568;45.286;9.900;2023-02-10T06:19:46;-0.40;67.80
47805;DHT22;33568;45.286;9.900;2023-02-10T06:22:12;-0.30;66.50
47805;DHT22;33568;45.286;9.900;2023-02-10T06:24:38;-0.40;68.20
47805;DHT22;33568;45.286;9.900;2023-02-10T06:27:05;-0.30;66.50
47805;DHT22;33568;45.286;9.900;2023-02-10T06:29:31;-0.30;66.30
47805;DHT22;33568;45.286;9.900;2023-02-10T06:31:57;-0.40;67.90
47805;DHT22;33568;45.286;9.900;2023-02-10T06:34:24;-0.40;66.70
47805;DHT22;33568;45.286;9.900;2023-02-10T06:36:50;-0.50;68.50
47805;DHT22;33568;45.286;9.900;2023-02-10T06:39:17;-0.50;67.10
47805;DHT22;33568;45.286;9.900;2023-02-10T06:41:43;-0.40;66.80
47805;DHT22;33568;45.286;9.900;2023-02-10T06:44:09;-0.50;68.50
47805;DHT22;33568;45.286;9.900;2023-02-10T06:46:36;-0.40;67.00
47805;DHT22;33568;45.286;9.900;2023-02-10T06:49:02;-0.40;66.90
47805;DHT22;33568;45.286;9.900;2023-02-10T06:51:29;-0.30;66.80
47805;DHT22;33568;45.286;9.900;2023-02-10T06:53:55;-0.40;68.40
47805;DHT22;33568;45.286;9.900;2023-02-10T06:56:21;-0.40;67.00
47805;DHT22;33568;45.286;9.900;2023-02-10T06:58:48;-0.30;66.90
47805;DHT22;33568;45.286;9.900;2023-02-10T07:01:16;-0.30;67.00
47805;DHT22;33568;45.286;9.900;2023-02-10T07:03:43;-0.30;68.70
47805;DHT22;33568;45.286;9.900;2023-02-10T07:06:09;-0.20;67.10
47805;DHT22;33568;45.286;9.900;2023-02-10T07:08:36;-0.20;68.70
47805;DHT22;33568;45.286;9.900;2023-02-10T07:11:02;-0.20;67.10
47805;DHT22;33568;45.286;9.900;2023-02-10T07:13:28;-0.10;66.70
47805;DHT22;33568;45.286;9.900;2023-02-10T07:15:55;-0.20;68.90
47805;DHT22;33568;45.286;9.900;2023-02-10T07:18:21;-0.20;67.20
47805;DHT22;33568;45.286;9.900;2023-02-10T07:20:47;-0.30;67.50
47805;DHT22;33568;45.286;9.900;2023-02-10T07:23:14;-0.30;69.40
47805;DHT22;33568;45.286;9.900;2023-02-10T07:25:40;-0.30;68.20
47805;DHT22;33568;45.286;9.900;2023-02-10T07:28:07;-0.30;68.10
47805;DHT22;33568;45.286;9.900;2023-02-10T07:30:34;-0.30;68.40
47805;DHT22;33568;45.286;9.900;2023-02-10T07:33:00;-0.20;68.30
47805;DHT22;33568;45.286;9.900;2023-02-10T07:35:28;-0.10;68.30
47805;DHT22;33568;45.286;9.900;2023-02-10T07:37:55;-0.10;68.60
47805;DHT22;33568;45.286;9.900;2023-02-10T07:40:21;0.00;68.60
47805;DHT22;33568;45.286;9.900;2023-02-10T07:42:48;0.00;70.60
47805;DHT22;33568;45.286;9.900;2023-02-10T07:45:25;0.00;68.70
47805;DHT22;33568;45.286;9.900;2023-02-10T07:47:57;0.00;68.80
47805;DHT22;33568;45.286;9.900;2023-02-10T07:50:24;0.10;68.80
47805;DHT22;33568;45.286;9.900;2023-02-10T07:52:51;0.10;68.80
47805;DHT22;33568;45.286;9.900;2023-02-10T07:55:17;0.20;69.10
47805;DHT22;33568;45.286;9.900;2023-02-10T07:57:44;0.30;70.00
47805;DHT22;33568;45.286;9.900;2023-02-10T08:00:11;0.40;68.80
47805;DHT22;33568;45.286;9.900;2023-02-10T08:02:41;0.50;68.80
47805;DHT22;33568;45.286;9.900;2023-02-10T08:05:08;0.70;68.60
47805;DHT22;33568;45.286;9.900;2023-02-10T08:07:35;0.80;68.50
47805;DHT22;33568;45.286;9.900;2023-02-10T08:10:02;1.00;68.20
47805;DHT22;33568;45.286;9.900;2023-02-10T08:12:29;1.10;68.20
47805;DHT22;33568;45.286;9.900;2023-02-10T08:14:55;1.10;68.00
47805;DHT22;33568;45.286;9.900;2023-02-10T08:17:22;1.20;68.10
47805;DHT22;33568;45.286;9.900;2023-02-10T08:19:48;1.30;68.30
47805;DHT22;33568;45.286;9.900;2023-02-10T08:22:14;1.40;68.30
47805;DHT22;33568;45.286;9.900;2023-02-10T08:24:41;1.40;68.40
47805;DHT22;33568;45.286;9.900;2023-02-10T08:27:08;1.50;68.40
47805;DHT22;33568;45.286;9.900;2023-02-10T08:29:34;1.60;68.40
47805;DHT22;33568;45.286;9.900;2023-02-10T08:32:01;1.70;68.40
47805;DHT22;33568;45.286;9.900;2023-02-10T08:34:27;1.80;68.30
47805;DHT22;33568;45.286;9.900;2023-02-10T08:36:53;1.90;68.30
47805;DHT22;33568;45.286;9.900;2023-02-10T08:39:20;1.90;70.10
47805;DHT22;33568;45.286;9.900;2023-02-10T08:41:47;2.10;68.50
47805;DHT22;33568;45.286;9.900;2023-02-10T08:44:14;2.20;68.10
47805;DHT22;33568;45.286;9.900;2023-02-10T08:46:41;2.40;68.10
47805;DHT22;33568;45.286;9.900;2023-02-10T08:49:07;2.30;68.20
47805;DHT22;33568;45.286;9.900;2023-02-10T08:51:33;2.30;68.20
47805;DHT22;33568;45.286;9.900;2023-02-10T08:54:01;2.30;70.00
47805;DHT22;33568;45.286;9.900;2023-02-10T08:56:28;2.30;68.60
47805;DHT22;33568;45.286;9.900;2023-02-10T08:58:54;2.40;68.50
47805;DHT22;33568;45.286;9.900;2023-02-10T09:01:22;2.50;68.70
47805;DHT22;33568;45.286;9.900;2023-02-10T09:03:48;2.60;70.00
47805;DHT22;33568;45.286;9.900;2023-02-10T09:06:18;2.70;70.00
47805;DHT22;33568;45.286;9.900;2023-02-10T09:08:48;2.80;68.30
47805;DHT22;33568;45.286;9.900;2023-02-10T09:11:15;2.90;68.70
47805;DHT22;33568;45.286;9.900;2023-02-10T09:13:42;3.00;67.90
47805;DHT22;33568;45.286;9.900;2023-02-10T09:16:09;2.90;68.00
47805;DHT22;33568;45.286;9.900;2023-02-10T09:18:36;3.00;67.90
47805;DHT22;33568;45.286;9.900;2023-02-10T09:21:02;3.10;68.10
47805;DHT22;33568;45.286;9.900;2023-02-10T09:23:29;3.20;68.60
47805;DHT22;33568;45.286;9.900;2023-02-10T09:25:56;3.40;67.70
47805;DHT22;33568;45.286;9.900;2023-02-10T09:28:23;3.30;68.70
47805;DHT22;33568;45.286;9.900;2023-02-10T09:30:49;3.40;68.00
47805;DHT22;33568;45.286;9.900;2023-02-10T09:33:16;3.60;67.60
47805;DHT22;33568;45.286;9.900;2023-02-10T09:35:43;3.70;67.20
47805;DHT22;33568;45.286;9.900;2023-02-10T09:38:11;3.90;67.00
47805;DHT22;33568;45.286;9.900;2023-02-10T09:40:52;4.00;67.10
47805;DHT22;33568;45.286;9.900;2023-02-10T09:43:51;4.20;66.90
47805;DHT22;33568;45.286;9.900;2023-02-10T09:52:07;8.10;63.30
47805;DHT22;33568;45.286;9.900;2023-02-10T09:54:39;10.70;58.10
47805;DHT22;33568;45.286;9.900;2023-02-10T09:57:12;11.80;56.10
47805;DHT22;33568;45.286;9.900;2023-02-10T09:59:41;13.10;54.30
47805;DHT22;33568;45.286;9.900;2023-02-10T10:02:33;14.20;52.60
47805;DHT22;33568;45.286;9.900;2023-02-10T10:05:11;15.00;48.90
47805;DHT22;33568;45.286;9.900;2023-02-10T10:07:44;16.00;49.70
47805;DHT22;33568;45.286;9.900;2023-02-10T10:10:20;16.80;47.70
47805;DHT22;33568;45.286;9.900;2023-02-10T10:12:48;16.60;46.90
47805;DHT22;33568;45.286;9.900;2023-02-10T10:15:15;16.60;47.30
47805;DHT22;33568;45.286;9.900;2023-02-10T10:31:34;18.40;43.40
47805;DHT22;33568;45.286;9.900;2023-02-10T10:34:18;18.40;39.90
47805;DHT22;33568;45.286;9.900;2023-02-10T10:36:48;18.40;42.80
47805;DHT22;33568;45.286;9.900;2023-02-10T10:39:57;18.90;42.50
47805;DHT22;33568;45.286;9.900;2023-02-10T10:42:40;19.20;39.10
47805;DHT22;33568;45.286;9.900;2023-02-10T10:45:24;19.00;39.50
47805;DHT22;33568;45.286;9.900;2023-02-10T10:48:04;19.10;40.80
47805;DHT22;33568;45.286;9.900;2023-02-10T10:50:32;19.20;40.40
47805;DHT22;33568;45.286;9.900;2023-02-10T10:53:03;19.30;40.60
47805;DHT22;33568;45.286;9.900;2023-02-10T10:55:42;19.90;40.20
47805;DHT22;33568;45.286;9.900;2023-02-10T10:58:31;20.20;37.50
47805;DHT22;33568;45.286;9.900;2023-02-10T11:01:01;20.20;36.60
47805;DHT22;33568;45.286;9.900;2023-02-10T11:03:29;20.50;38.30
47805;DHT22;33568;45.286;9.900;2023-02-10T11:08:51;21.10;36.30
47805;DHT22;33568;45.286;9.900;2023-02-10T11:11:18;21.40;36.10
47805;DHT22;33568;45.286;9.900;2023-02-10T11:13:49;21.50;36.30
47805;DHT22;33568;45.286;9.900;2023-02-10T11:16:16;21.60;34.20
47805;DHT22;33568;45.286;9.900;2023-02-10T11:18:57;21.90;36.50
47805;DHT22;33568;45.286;9.900;2023-02-10T11:21:38;22.00;34.20
47805;DHT22;33568;45.286;9.900;2023-02-10T11:24:24;21.80;34.40
47805;DHT22;33568;45.286;9.900;2023-02-10T11:27:06;22.10;34.20
47805;DHT22;33568;45.286;9.900;2023-02-10T11:29:47;22.20;34.40
47805;DHT22;33568;45.286;9.900;2023-02-10T11:32:40;22.20;34.10
47805;DHT22;33568;45.286;9.900;2023-02-10T11:35:16;22.00;32.90
47805;DHT22;33568;45.286;9.900;2023-02-10T11:37:44;22.00;34.00
47805;DHT22;33568;45.286;9.900;2023-02-10T11:40:29;22.10;34.60
47805;DHT22;33568;45.286;9.900;2023-02-10T11:43:01;21.90;33.70
47805;DHT22;33568;45.286;9.900;2023-02-10T11:45:30;22.20;34.00
47805;DHT22;33568;45.286;9.900;2023-02-10T11:48:17;22.50;33.70
47805;DHT22;33568;45.286;9.900;2023-02-10T11:50:45;22.50;32.80
47805;DHT22;33568;45.286;9.900;2023-02-10T11:53:27;22.30;33.30
47805;DHT22;33568;45.286;9.900;2023-02-10T11:56:23;22.20;32.10
47805;DHT22;33568;45.286;9.900;2023-02-10T12:02:09;21.80;31.90
47805;DHT22;33568;45.286;9.900;2023-02-10T12:07:35;22.70;31.70
47805;DHT22;33568;45.286;9.900;2023-02-10T12:15:59;22.90;30.50
47805;DHT22;33568;45.286;9.900;2023-02-10T12:27:19;24.50;29.30
47805;DHT22;33568;45.286;9.900;2023-02-10T12:52:34;14.40;35.10
47805;DHT22;33568;45.286;9.900;2023-02-10T12:55:14;13.20;36.20
47805;DHT22;33568;45.286;9.900;2023-02-10T12:57:52;12.50;37.20
47805;DHT22;33568;45.286;9.900;2023-02-10T13:03:33;11.60;38.30
47805;DHT22;33568;45.286;9.900;2023-02-10T13:06:34;11.30;38.70
47805;DHT22;33568;45.286;9.900;2023-02-10T13:09:15;11.00;39.10
47805;DHT22;33568;45.286;9.900;2023-02-10T13:12:11;10.90;39.40
47805;DHT22;33568;45.286;9.900;2023-02-10T13:14:40;10.60;39.80
47805;DHT22;33568;45.286;9.900;2023-02-10T13:17:08;10.50;39.90
47805;DHT22;33568;45.286;9.900;2023-02-10T13:19:57;10.40;40.20
47805;DHT22;33568;45.286;9.900;2023-02-10T13:28:05;10.10;41.00
47805;DHT22;33568;45.286;9.900;2023-02-10T13:31:00;10.00;41.30
47805;DHT22;33568;45.286;9.900;2023-02-10T13:36:37;9.90;41.60
47805;DHT22;33568;45.286;9.900;2023-02-10T13:39:18;10.00;41.80
47805;DHT22;33568;45.286;9.900;2023-02-10T13:41:48;10.00;42.20
47805;DHT22;33568;45.286;9.900;2023-02-10T13:44:29;10.00;42.20
47805;DHT22;33568;45.286;9.900;2023-02-10T13:47:11;9.90;42.40
47805;DHT22;33568;45.286;9.900;2023-02-10T13:49:50;9.80;42.60
47805;DHT22;33568;45.286;9.900;2023-02-10T13:52:25;9.80;43.00
47805;DHT22;33568;45.286;9.900;2023-02-10T13:57:38;9.90;42.60
47805;DHT22;33568;45.286;9.900;2023-02-10T14:02:39;9.70;42.90
47805;DHT22;33568;45.286;9.900;2023-02-10T14:05:22;9.80;43.00
47805;DHT22;33568;45.286;9.900;2023-02-10T14:07:49;9.80;42.80
47805;DHT22;33568;45.286;9.900;2023-02-10T14:15:58;9.70;43.10
47805;DHT22;33568;45.286;9.900;2023-02-10T14:18:32;9.60;43.40
47805;DHT22;33568;45.286;9.900;2023-02-10T14:23:32;9.50;43.80
47805;DHT22;33568;45.286;9.900;2023-02-10T14:26:02;9.60;44.00
47805;DHT22;33568;45.286;9.900;2023-02-10T14:28:40;9.70;44.00
47805;DHT22;33568;45.286;9.900;2023-02-10T14:31:15;9.70;44.00
47805;DHT22;33568;45.286;9.900;2023-02-10T14:33:53;9.70;43.80
47805;DHT22;33568;45.286;9.900;2023-02-10T14:36:19;9.70;43.70
47805;DHT22;33568;45.286;9.900;2023-02-10T14:38:54;9.70;43.40
47805;DHT22;33568;45.286;9.900;2023-02-10T14:41:22;9.60;43.20
47805;DHT22;33568;45.286;9.900;2023-02-10T14:43:49;9.60;43.10
47805;DHT22;33568;45.286;9.900;2023-02-10T14:46:23;9.60;43.10
47805;DHT22;33568;45.286;9.900;2023-02-10T14:49:00;9.60;43.20
47805;DHT22;33568;45.286;9.900;2023-02-10T14:51:28;9.60;42.90
47805;DHT22;33568;45.286;9.900;2023-02-10T14:54:06;9.50;43.20
47805;DHT22;33568;45.286;9.900;2023-02-10T14:56:32;9.60;43.20
47805;DHT22;33568;45.286;9.900;2023-02-10T14:58:59;9.50;43.20
47805;DHT22;33568;45.286;9.900;2023-02-10T15:01:29;9.50;43.20
47805;DHT22;33568;45.286;9.900;2023-02-10T15:03:56;9.50;43.20
47805;DHT22;33568;45.286;9.900;2023-02-10T15:06:28;9.50;43.40
47805;DHT22;33568;45.286;9.900;2023-02-10T15:09:04;9.50;43.30
47805;DHT22;33568;45.286;9.900;2023-02-10T15:12:03;9.50;43.60
47805;DHT22;33568;45.286;9.900;2023-02-10T15:15:05;9.50;43.10
47805;DHT22;33568;45.286;9.900;2023-02-10T15:17:50;9.50;43.60
47805;DHT22;33568;45.286;9.900;2023-02-10T15:20:24;9.40;43.70
47805;DHT22;33568;45.286;9.900;2023-02-10T15:28:21;9.40;43.70
47805;DHT22;33568;45.286;9.900;2023-02-10T15:31:06;9.30;43.80
47805;DHT22;33568;45.286;9.900;2023-02-10T15:33:39;9.20;43.90
47805;DHT22;33568;45.286;9.900;2023-02-10T15:38:59;9.20;43.90
47805;DHT22;33568;45.286;9.900;2023-02-10T15:41:38;9.10;43.80
47805;DHT22;33568;45.286;9.900;2023-02-10T15:44:30;9.10;44.00
47805;DHT22;33568;45.286;9.900;2023-02-10T15:49:44;9.10;44.40
47805;DHT22;33568;45.286;9.900;2023-02-10T15:52:13;9.10;44.50
47805;DHT22;33568;45.286;9.900;2023-02-10T15:54:42;9.00;44.60
47805;DHT22;33568;45.286;9.900;2023-02-10T15:57:11;8.90;44.60
47805;DHT22;33568;45.286;9.900;2023-02-10T15:59:38;8.80;44.90
47805;DHT22;33568;45.286;9.900;2023-02-10T16:02:07;8.80;45.00
47805;DHT22;33568;45.286;9.900;2023-02-10T16:04:36;8.80;44.90
47805;DHT22;33568;45.286;9.900;2023-02-10T16:07:03;8.70;44.90
47805;DHT22;33568;45.286;9.900;2023-02-10T16:09:31;8.70;45.10
47805;DHT22;33568;45.286;9.900;2023-02-10T16:11:59;8.60;45.10
47805;DHT22;33568;45.286;9.900;2023-02-10T16:14:26;8.60;45.20
47805;DHT22;33568;45.286;9.900;2023-02-10T16:16:53;8.60;45.40
47805;DHT22;33568;45.286;9.900;2023-02-10T16:19:24;8.40;45.70
47805;DHT22;33568;45.286;9.900;2023-02-10T16:21:51;8.40;45.60
47805;DHT22;33568;45.286;9.900;2023-02-10T16:24:24;8.30;45.70
47805;DHT22;33568;45.286;9.900;2023-02-10T16:26:51;8.30;45.90
47805;DHT22;33568;45.286;9.900;2023-02-10T16:29:21;8.20;46.00
47805;DHT22;33568;45.286;9.900;2023-02-10T16:31:48;8.20;46.30
47805;DHT22;33568;45.286;9.900;2023-02-10T16:34:15;8.10;46.50
47805;DHT22;33568;45.286;9.900;2023-02-10T16:36:42;8.10;46.60
47805;DHT22;33568;45.286;9.900;2023-02-10T16:39:16;8.00;46.70
47805;DHT22;33568;45.286;9.900;2023-02-10T16:41:48;8.00;46.90
47805;DHT22;33568;45.286;9.900;2023-02-10T16:44:15;7.90;47.10
47805;DHT22;33568;45.286;9.900;2023-02-10T16:46:42;7.80;47.20
47805;DHT22;33568;45.286;9.900;2023-02-10T16:49:11;7.80;47.40
47805;DHT22;33568;45.286;9.900;2023-02-10T16:51:38;7.70;47.60
47805;DHT22;33568;45.286;9.900;2023-02-10T16:54:04;7.60;47.90
47805;DHT22;33568;45.286;9.900;2023-02-10T16:56:36;7.50;48.00
47805;DHT22;33568;45.286;9.900;2023-02-10T16:59:04;7.40;48.30
47805;DHT22;33568;45.286;9.900;2023-02-10T17:01:31;7.30;48.60
47805;DHT22;33568;45.286;9.900;2023-02-10T17:03:58;7.30;48.70
47805;DHT22;33568;45.286;9.900;2023-02-10T17:06:25;7.10;48.80
47805;DHT22;33568;45.286;9.900;2023-02-10T17:08:53;7.10;49.10
47805;DHT22;33568;45.286;9.900;2023-02-10T17:11:19;7.00;49.40
47805;DHT22;33568;45.286;9.900;2023-02-10T17:13:46;6.90;49.60
47805;DHT22;33568;45.286;9.900;2023-02-10T17:16:27;6.90;49.80
47805;DHT22;33568;45.286;9.900;2023-02-10T17:18:56;6.80;49.80
47805;DHT22;33568;45.286;9.900;2023-02-10T17:21:22;6.70;49.90
47805;DHT22;33568;45.286;9.900;2023-02-10T17:23:49;6.60;50.20
47805;DHT22;33568;45.286;9.900;2023-02-10T17:26:15;6.50;51.50
47805;DHT22;33568;45.286;9.900;2023-02-10T17:28:42;6.50;50.40
47805;DHT22;33568;45.286;9.900;2023-02-10T17:31:14;6.40;50.70
47805;DHT22;33568;45.286;9.900;2023-02-10T17:33:41;6.30;50.80
47805;DHT22;33568;45.286;9.900;2023-02-10T17:36:22;6.20;50.90
47805;DHT22;33568;45.286;9.900;2023-02-10T17:38:50;6.20;51.20
47805;DHT22;33568;45.286;9.900;2023-02-10T17:41:23;6.10;51.60
47805;DHT22;33568;45.286;9.900;2023-02-10T17:43:51;6.10;51.90
47805;DHT22;33568;45.286;9.900;2023-02-10T17:46:18;6.00;52.20
47805;DHT22;33568;45.286;9.900;2023-02-10T17:48:44;6.00;52.30
47805;DHT22;33568;45.286;9.900;2023-02-10T17:51:19;5.90;52.30
47805;DHT22;33568;45.286;9.900;2023-02-10T17:53:47;5.90;52.30
47805;DHT22;33568;45.286;9.900;2023-02-10T17:56:15;5.80;52.50
47805;DHT22;33568;45.286;9.900;2023-02-10T17:58:41;5.80;52.70
47805;DHT22;33568;45.286;9.900;2023-02-10T18:01:17;5.70;52.70
47805;DHT22;33568;45.286;9.900;2023-02-10T18:03:44;5.60;54.20
47805;DHT22;33568;45.286;9.900;2023-02-10T18:06:10;5.60;52.90